createdAt,value
2024-02-29T00:00:50.365Z,9.15
2024-02-29T00:01:47.688Z,8.80
2024-02-29T00:02:45.268Z,8.37
2024-02-29T00:03:42.306Z,8.49
2024-02-29T00:04:39.515Z,8.51
2024-02-29T00:05:38.268Z,8.65
2024-02-29T00:06:36.163Z,8.94
2024-02-29T00:07:33.392Z,8.93
2024-02-29T00:08:30.453Z,9.00
2024-02-29T00:09:27.639Z,8.79
2024-02-29T00:10:24.799Z,8.58
2024-02-29T00:11:22.650Z,8.64
2024-02-29T00:12:20.206Z,8.46
2024-02-29T00:13:17.217Z,8.47
2024-02-29T00:14:14.477Z,8.44
2024-02-29T00:15:12.620Z,8.56
2024-02-29T00:16:09.663Z,8.73
2024-02-29T00:17:07.417Z,8.85
2024-02-29T00:18:04.741Z,9.20
2024-02-29T00:19:01.957Z,9.28
2024-02-29T00:19:59.316Z,9.34
2024-02-29T00:20:56.539Z,9.46
2024-02-29T00:21:53.837Z,9.65
2024-02-29T00:22:51.051Z,9.36
2024-02-29T00:23:48.452Z,9.40
2024-02-29T00:24:45.497Z,8.91
2024-02-29T00:25:42.642Z,8.47
2024-02-29T00:26:39.770Z,9.13
2024-02-29T00:27:36.915Z,8.97
2024-02-29T00:28:33.980Z,8.71
2024-02-29T00:29:31.216Z,8.98
2024-02-29T00:30:28.431Z,9.11
2024-02-29T00:31:26.134Z,8.92
2024-02-29T00:32:23.356Z,9.30
2024-02-29T00:33:20.488Z,9.40
2024-02-29T00:34:17.682Z,9.19
2024-02-29T00:35:14.984Z,9.59
2024-02-29T00:36:12.142Z,9.76
2024-02-29T00:37:09.291Z,9.46
2024-02-29T00:38:06.568Z,9.49
2024-02-29T00:39:11.492Z,9.59
2024-02-29T00:40:12.190Z,9.57
2024-02-29T00:41:09.498Z,9.55
2024-02-29T00:42:06.785Z,9.50
2024-02-29T00:43:04.310Z,9.52
2024-02-29T00:44:01.594Z,9.53
2024-02-29T00:44:58.866Z,9.32
2024-02-29T00:45:56.284Z,9.13
2024-02-29T00:46:53.444Z,9.01
2024-02-29T00:47:52.252Z,9.11
2024-02-29T00:48:49.599Z,9.25
2024-02-29T00:49:46.795Z,9.12
2024-02-29T00:50:43.910Z,8.99
2024-02-29T00:51:41.000Z,9.16
2024-02-29T00:52:39.401Z,9.42
2024-02-29T00:53:36.556Z,9.50
2024-02-29T00:54:33.819Z,9.58
2024-02-29T00:55:30.955Z,9.68
2024-02-29T00:56:28.044Z,9.58
2024-02-29T00:57:25.508Z,9.65
2024-02-29T00:58:23.406Z,9.57
2024-02-29T00:59:20.487Z,9.44
2024-02-29T01:00:17.842Z,8.95
2024-02-29T01:01:15.088Z,8.80
2024-02-29T01:02:12.340Z,8.75
2024-02-29T01:03:10.226Z,8.69
2024-02-29T01:04:07.401Z,8.79
2024-02-29T01:05:05.807Z,8.70
2024-02-29T01:06:03.043Z,8.71
2024-02-29T01:07:00.147Z,8.68
2024-02-29T01:07:57.230Z,8.54
2024-02-29T01:08:54.345Z,8.57
2024-02-29T01:09:51.540Z,8.41
2024-02-29T01:10:49.044Z,8.36
2024-02-29T01:11:46.318Z,8.45
2024-02-29T01:12:44.123Z,8.40
2024-02-29T01:13:41.388Z,8.50
2024-02-29T01:14:38.540Z,8.44
2024-02-29T01:15:35.810Z,8.28
2024-02-29T01:16:32.884Z,8.20
2024-02-29T01:17:30.162Z,8.14
2024-02-29T01:18:27.548Z,8.29
2024-02-29T01:19:24.745Z,8.46
2024-02-29T01:20:21.891Z,8.76
2024-02-29T01:21:19.132Z,8.72
2024-02-29T01:22:18.027Z,8.47
2024-02-29T01:23:15.616Z,8.32
2024-02-29T01:24:12.705Z,8.77
2024-02-29T01:25:10.344Z,9.04
2024-02-29T01:26:08.176Z,9.61
2024-02-29T01:27:05.418Z,9.03
2024-02-29T01:28:02.513Z,8.82
2024-02-29T01:28:59.756Z,9.03
2024-02-29T01:29:56.871Z,8.64
2024-02-29T01:30:54.045Z,8.46
2024-02-29T01:31:51.188Z,8.15
2024-02-29T01:32:48.721Z,8.12
2024-02-29T01:33:45.905Z,8.17
2024-02-29T01:34:43.115Z,8.60
2024-02-29T01:35:40.277Z,9.17
2024-02-29T01:36:37.454Z,8.97
2024-02-29T01:37:34.600Z,8.51
2024-02-29T01:38:31.663Z,8.15
2024-02-29T01:39:28.860Z,8.07
2024-02-29T01:40:26.532Z,8.21
2024-02-29T01:41:23.863Z,8.38
2024-02-29T01:42:21.024Z,8.38
2024-02-29T01:43:18.267Z,8.38
2024-02-29T01:44:15.463Z,8.50
2024-02-29T01:45:13.646Z,8.31
2024-02-29T01:46:15.212Z,8.20
2024-02-29T01:47:14.249Z,8.09
2024-02-29T01:48:12.213Z,8.04
2024-02-29T01:49:09.555Z,8.09
2024-02-29T01:50:09.455Z,8.02
2024-02-29T01:51:08.212Z,7.77
2024-02-29T01:52:05.557Z,7.39
2024-02-29T01:53:02.842Z,7.37
2024-02-29T01:53:59.988Z,7.30
2024-02-29T01:54:57.157Z,7.61
2024-02-29T01:55:54.406Z,7.90
2024-02-29T01:56:52.185Z,8.09
2024-02-29T01:57:49.662Z,7.86
2024-02-29T01:58:47.003Z,7.65
2024-02-29T01:59:44.773Z,7.43
2024-02-29T02:00:42.061Z,7.26
2024-02-29T02:01:40.214Z,7.34
2024-02-29T02:02:40.055Z,7.19
2024-02-29T02:03:38.708Z,7.16
2024-02-29T02:04:36.049Z,7.47
2024-02-29T02:05:33.152Z,7.67
2024-02-29T02:06:30.283Z,7.83
2024-02-29T02:07:27.576Z,7.81
2024-02-29T02:08:27.646Z,7.61
2024-02-29T02:09:25.367Z,7.49
2024-02-29T02:10:22.975Z,7.53
2024-02-29T02:11:20.235Z,7.49
2024-02-29T02:12:17.497Z,7.39
2024-02-29T02:13:14.754Z,7.35
2024-02-29T02:14:11.896Z,7.43
2024-02-29T02:15:09.668Z,7.12
2024-02-29T02:16:07.623Z,7.10
2024-02-29T02:17:04.986Z,7.13
2024-02-29T02:18:02.071Z,7.34
2024-02-29T02:18:59.298Z,7.38
2024-02-29T02:19:57.351Z,7.56
2024-02-29T02:20:57.300Z,7.64
2024-02-29T02:21:54.523Z,7.62
2024-02-29T02:22:51.843Z,7.49
2024-02-29T02:23:48.867Z,7.33
2024-02-29T02:24:46.065Z,7.40
2024-02-29T02:25:43.269Z,7.49
2024-02-29T02:26:40.290Z,7.50
2024-02-29T02:27:40.409Z,7.44
2024-02-29T02:28:37.540Z,7.03
2024-02-29T02:29:34.773Z,6.75
2024-02-29T02:30:32.275Z,6.91
2024-02-29T02:31:30.660Z,7.22
2024-02-29T02:32:27.923Z,7.62
2024-02-29T02:33:25.202Z,7.72
2024-02-29T02:34:22.309Z,7.56
2024-02-29T02:35:19.493Z,7.62
2024-02-29T02:36:16.562Z,7.53
2024-02-29T02:37:13.686Z,7.78
2024-02-29T02:38:10.952Z,7.71
2024-02-29T02:39:09.425Z,7.21
2024-02-29T02:40:07.449Z,7.08
2024-02-29T02:41:04.861Z,7.32
2024-02-29T02:42:02.722Z,7.50
2024-02-29T02:43:00.006Z,7.32
2024-02-29T02:43:57.118Z,6.72
2024-02-29T02:44:54.330Z,6.72
2024-02-29T02:45:51.478Z,6.91
2024-02-29T02:46:49.445Z,6.64
2024-02-29T02:47:46.739Z,6.40
2024-02-29T02:48:44.334Z,6.34
2024-02-29T02:49:44.189Z,6.63
2024-02-29T02:50:41.347Z,6.74
2024-02-29T02:51:38.606Z,6.55
2024-02-29T02:52:35.826Z,6.56
2024-02-29T02:53:33.126Z,6.69
2024-02-29T02:54:30.403Z,6.87
2024-02-29T02:55:27.660Z,7.18
2024-02-29T02:56:24.848Z,7.23
2024-02-29T02:57:21.925Z,7.13
2024-02-29T02:58:18.940Z,7.65
2024-02-29T02:59:16.085Z,7.77
2024-02-29T03:00:13.970Z,7.45
2024-02-29T03:01:11.173Z,7.22
2024-02-29T03:02:08.470Z,7.15
2024-02-29T03:03:06.003Z,6.82
2024-02-29T03:04:03.110Z,6.25
2024-02-29T03:05:03.086Z,6.05
2024-02-29T03:06:00.207Z,6.19
2024-02-29T03:06:57.304Z,6.17
2024-02-29T03:07:54.303Z,6.42
2024-02-29T03:08:51.360Z,6.70
2024-02-29T03:09:48.625Z,6.96
2024-02-29T03:10:45.719Z,7.03
2024-02-29T03:11:42.875Z,7.27
2024-02-29T03:12:40.149Z,6.84
2024-02-29T03:13:37.777Z,6.83
2024-02-29T03:14:34.898Z,6.79
2024-02-29T03:15:32.083Z,6.97
2024-02-29T03:16:29.361Z,6.88
2024-02-29T03:17:26.414Z,6.80
2024-02-29T03:18:23.490Z,6.86
2024-02-29T03:19:20.591Z,7.04
2024-02-29T03:20:17.845Z,6.77
2024-02-29T03:21:16.122Z,6.79
2024-02-29T03:22:13.436Z,6.84
2024-02-29T03:23:10.576Z,7.08
2024-02-29T03:24:07.798Z,6.94
2024-02-29T03:25:05.166Z,6.77
2024-02-29T03:26:02.413Z,6.50
2024-02-29T03:26:59.547Z,6.21
2024-02-29T03:27:56.957Z,6.09
2024-02-29T03:28:53.983Z,6.14
2024-02-29T03:29:51.375Z,6.15
2024-02-29T03:30:48.427Z,6.25
2024-02-29T03:31:46.837Z,6.62
2024-02-29T03:32:44.740Z,6.34
2024-02-29T03:33:42.319Z,5.88
2024-02-29T03:34:39.499Z,5.64
2024-02-29T03:35:36.622Z,5.56
2024-02-29T03:36:33.900Z,5.43
2024-02-29T03:37:30.992Z,5.37
2024-02-29T03:38:28.234Z,5.34
2024-02-29T03:39:25.326Z,5.34
2024-02-29T03:40:22.403Z,5.66
2024-02-29T03:41:19.723Z,5.73
2024-02-29T03:42:18.762Z,5.96
2024-02-29T03:43:16.171Z,6.18
2024-02-29T03:44:13.416Z,6.36
2024-02-29T03:45:10.734Z,6.37
2024-02-29T03:46:07.971Z,6.17
2024-02-29T03:47:06.122Z,5.93
2024-02-29T03:48:03.282Z,5.81
2024-02-29T03:49:00.704Z,5.82
2024-02-29T03:49:58.964Z,6.31
2024-02-29T03:50:56.067Z,6.38
2024-02-29T03:51:53.156Z,6.59
2024-02-29T03:52:50.238Z,6.69
2024-02-29T03:53:47.375Z,6.69
2024-02-29T03:54:46.537Z,6.65
2024-02-29T03:55:45.033Z,6.46
2024-02-29T03:56:42.149Z,6.22
2024-02-29T03:57:39.227Z,5.89
2024-02-29T03:58:36.414Z,5.74
2024-02-29T03:59:34.056Z,6.01
2024-02-29T04:00:31.353Z,5.86
2024-02-29T04:01:28.756Z,5.73
2024-02-29T04:02:25.904Z,5.87
2024-02-29T04:03:23.158Z,5.78
2024-02-29T04:04:21.522Z,5.70
2024-02-29T04:05:18.678Z,5.63
2024-02-29T04:06:15.779Z,5.80
2024-02-29T04:07:12.925Z,6.21
2024-02-29T04:08:12.851Z,6.44
2024-02-29T04:09:10.850Z,6.66
2024-02-29T04:10:08.385Z,6.47
2024-02-29T04:11:05.867Z,6.03
2024-02-29T04:12:03.036Z,5.88
2024-02-29T04:13:00.221Z,6.22
2024-02-29T04:13:57.691Z,6.21
2024-02-29T04:14:54.927Z,6.27
2024-02-29T04:15:52.014Z,6.19
2024-02-29T04:16:49.109Z,6.21
2024-02-29T04:17:46.219Z,6.15
2024-02-29T04:18:43.378Z,6.19
2024-02-29T04:19:40.772Z,6.25
2024-02-29T04:20:37.881Z,6.02
2024-02-29T04:21:35.521Z,5.80
2024-02-29T04:22:32.519Z,5.75
2024-02-29T04:23:29.572Z,5.84
2024-02-29T04:24:26.634Z,5.81
2024-02-29T04:25:26.645Z,5.76
2024-02-29T04:26:25.543Z,5.75
2024-02-29T04:27:22.608Z,5.95
2024-02-29T04:28:19.817Z,6.10
2024-02-29T04:29:16.989Z,6.44
2024-02-29T04:30:15.406Z,5.89
2024-02-29T04:31:12.674Z,5.44
2024-02-29T04:32:09.961Z,5.62
2024-02-29T04:33:08.170Z,5.65
2024-02-29T04:34:05.353Z,5.68
2024-02-29T04:35:02.420Z,5.62
2024-02-29T04:35:59.575Z,5.66
2024-02-29T04:36:56.681Z,5.84
2024-02-29T04:37:53.844Z,5.73
2024-02-29T04:38:51.418Z,5.75
2024-02-29T04:39:48.592Z,5.76
2024-02-29T04:40:45.709Z,5.84
2024-02-29T04:41:43.028Z,5.91
2024-02-29T04:42:41.256Z,6.30
2024-02-29T04:43:38.698Z,6.38
2024-02-29T04:44:35.649Z,5.98
2024-02-29T04:45:32.810Z,5.84
2024-02-29T04:46:30.521Z,5.66
2024-02-29T04:47:27.643Z,5.83
2024-02-29T04:48:24.696Z,5.92
2024-02-29T04:49:21.836Z,5.97
2024-02-29T04:50:19.783Z,6.19
2024-02-29T04:51:16.928Z,6.13
2024-02-29T04:52:14.070Z,5.68
2024-02-29T04:53:11.343Z,5.75
2024-02-29T04:54:08.916Z,6.03
2024-02-29T04:55:06.481Z,6.10
2024-02-29T04:56:05.543Z,5.59
2024-02-29T04:57:02.979Z,4.97
2024-02-29T04:58:00.153Z,5.15
2024-02-29T04:58:57.273Z,4.97
2024-02-29T04:59:54.566Z,4.92
2024-02-29T05:00:51.970Z,5.14
2024-02-29T05:01:49.233Z,5.08
2024-02-29T05:02:46.506Z,5.04
2024-02-29T05:03:43.592Z,5.19
2024-02-29T05:04:40.966Z,5.31
2024-02-29T05:05:38.126Z,5.33
2024-02-29T05:06:35.310Z,5.48
2024-02-29T05:07:33.043Z,5.56
2024-02-29T05:08:30.202Z,5.71
2024-02-29T05:09:28.136Z,5.82
2024-02-29T05:10:25.260Z,5.74
2024-02-29T05:11:22.442Z,5.64
2024-02-29T05:12:21.263Z,5.38
2024-02-29T05:13:18.354Z,5.42
2024-02-29T05:14:15.429Z,5.17
2024-02-29T05:15:13.014Z,5.05
2024-02-29T05:16:10.226Z,5.12
2024-02-29T05:17:07.420Z,5.50
2024-02-29T05:18:05.124Z,5.70
2024-02-29T05:19:02.552Z,5.50
2024-02-29T05:20:00.508Z,5.62
2024-02-29T05:20:57.645Z,5.70
2024-02-29T05:21:56.647Z,5.97
2024-02-29T05:22:55.178Z,5.89
2024-02-29T05:23:52.334Z,5.73
2024-02-29T05:24:49.494Z,5.73
2024-02-29T05:25:46.459Z,5.82
2024-02-29T05:26:43.636Z,5.67
2024-02-29T05:27:40.863Z,5.84
2024-02-29T05:28:38.250Z,5.82
2024-02-29T05:29:35.453Z,5.67
2024-02-29T05:30:32.573Z,5.34
2024-02-29T05:31:29.664Z,5.10
2024-02-29T05:32:26.812Z,5.11
2024-02-29T05:33:24.131Z,5.44
2024-02-29T05:34:25.363Z,5.50
2024-02-29T05:35:24.415Z,5.17
2024-02-29T05:36:21.681Z,5.35
2024-02-29T05:37:19.127Z,5.47
2024-02-29T05:38:16.474Z,5.51
2024-02-29T05:39:13.670Z,5.05
2024-02-29T05:40:12.074Z,5.06
2024-02-29T05:41:09.414Z,5.16
2024-02-29T05:42:06.873Z,5.22
2024-02-29T05:43:05.091Z,4.99
2024-02-29T05:44:02.246Z,4.77
2024-02-29T05:44:59.396Z,4.99
2024-02-29T05:45:56.635Z,4.99
2024-02-29T05:46:53.658Z,5.40
2024-02-29T05:47:51.968Z,5.47
2024-02-29T05:48:49.227Z,5.64
2024-02-29T05:49:46.269Z,5.61
2024-02-29T05:50:43.364Z,5.65
2024-02-29T05:51:40.414Z,5.45
2024-02-29T05:52:37.918Z,5.48
2024-02-29T05:53:35.720Z,5.40
2024-02-29T05:54:32.808Z,5.09
2024-02-29T05:55:29.925Z,5.32
2024-02-29T05:56:27.017Z,5.27
2024-02-29T05:57:25.959Z,5.38
2024-02-29T05:58:23.047Z,5.43
2024-02-29T05:59:21.956Z,5.56
2024-02-29T06:00:19.413Z,5.47
2024-02-29T06:01:16.670Z,5.70
2024-02-29T06:02:14.100Z,5.50
2024-02-29T06:03:11.518Z,5.57
2024-02-29T06:04:08.699Z,5.59
2024-02-29T06:05:07.444Z,5.62
2024-02-29T06:06:06.130Z,5.47
2024-02-29T06:07:03.289Z,5.56
2024-02-29T06:08:00.355Z,5.39
2024-02-29T06:08:57.369Z,5.39
2024-02-29T06:09:54.383Z,5.32
2024-02-29T06:10:51.502Z,5.50
2024-02-29T06:11:49.395Z,5.39
2024-02-29T06:12:47.127Z,5.58
2024-02-29T06:13:44.741Z,5.45
2024-02-29T06:14:41.996Z,5.37
2024-02-29T06:15:39.315Z,5.34
2024-02-29T06:16:36.611Z,5.28
2024-02-29T06:17:33.821Z,5.38
2024-02-29T06:18:31.007Z,5.49
2024-02-29T06:19:28.557Z,5.19
2024-02-29T06:20:25.535Z,4.82
2024-02-29T06:21:22.670Z,4.86
2024-02-29T06:22:24.396Z,4.61
2024-02-29T06:23:21.521Z,4.93
2024-02-29T06:24:20.364Z,5.31
2024-02-29T06:25:19.187Z,5.37
2024-02-29T06:26:16.586Z,5.41
2024-02-29T06:27:13.773Z,5.25
2024-02-29T06:28:10.978Z,5.60
2024-02-29T06:29:08.064Z,5.52
2024-02-29T06:30:07.723Z,5.45
2024-02-29T06:31:05.062Z,5.70
2024-02-29T06:32:03.241Z,6.03
2024-02-29T06:33:00.879Z,5.93
2024-02-29T06:33:59.586Z,5.57
2024-02-29T06:34:56.730Z,5.39
2024-02-29T06:35:53.980Z,5.41
2024-02-29T06:36:51.314Z,5.57
2024-02-29T06:37:48.428Z,5.65
2024-02-29T06:38:45.675Z,5.64
2024-02-29T06:39:43.018Z,5.40
2024-02-29T06:40:40.057Z,5.59
2024-02-29T06:41:37.891Z,5.80
2024-02-29T06:42:35.133Z,5.60
2024-02-29T06:43:33.412Z,5.44
2024-02-29T06:44:30.710Z,5.52
2024-02-29T06:45:27.869Z,5.74
2024-02-29T06:46:24.934Z,6.22
2024-02-29T06:47:22.097Z,6.11
2024-02-29T06:48:20.199Z,6.19
2024-02-29T06:49:17.331Z,6.32
2024-02-29T06:50:14.625Z,6.45
2024-02-29T06:51:11.663Z,6.64
2024-02-29T06:52:08.814Z,6.67
2024-02-29T06:53:05.828Z,6.56
2024-02-29T06:54:04.109Z,6.32
2024-02-29T06:55:01.397Z,6.17
2024-02-29T06:55:58.875Z,6.56
2024-02-29T06:56:56.186Z,6.43
2024-02-29T06:57:53.322Z,6.75
2024-02-29T06:58:50.699Z,6.53
2024-02-29T06:59:49.924Z,6.64
2024-02-29T07:00:49.432Z,6.78
2024-02-29T07:01:46.673Z,6.53
2024-02-29T07:02:43.927Z,6.79
2024-02-29T07:03:41.428Z,6.70
2024-02-29T07:04:39.406Z,6.69
2024-02-29T07:05:38.366Z,6.51
2024-02-29T07:06:36.225Z,6.46
2024-02-29T07:07:33.429Z,6.55
2024-02-29T07:08:32.638Z,7.22
2024-02-29T07:09:29.723Z,6.72
2024-02-29T07:10:26.767Z,7.08
2024-02-29T07:11:24.409Z,7.10
2024-02-29T07:12:22.006Z,6.97
2024-02-29T07:13:19.272Z,7.42
2024-02-29T07:14:17.989Z,7.29
2024-02-29T07:15:15.632Z,7.24
2024-02-29T07:16:12.784Z,7.69
2024-02-29T07:17:09.996Z,7.59
2024-02-29T07:18:07.901Z,7.47
2024-02-29T07:19:05.545Z,7.82
2024-02-29T07:20:05.122Z,7.50
2024-02-29T07:21:02.258Z,7.23
2024-02-29T07:21:59.383Z,7.72
2024-02-29T07:22:57.998Z,7.57
2024-02-29T07:23:54.996Z,7.97
2024-02-29T07:24:52.057Z,7.49
2024-02-29T07:25:49.244Z,7.83
2024-02-29T07:26:46.606Z,7.88
2024-02-29T07:27:46.257Z,7.69
2024-02-29T07:28:43.476Z,7.85
2024-02-29T07:29:40.605Z,8.03
2024-02-29T07:30:37.984Z,7.94
2024-02-29T07:31:35.074Z,7.88
2024-02-29T07:32:32.145Z,8.36
2024-02-29T07:33:30.056Z,8.35
2024-02-29T07:34:27.166Z,8.44
2024-02-29T07:35:24.666Z,8.32
2024-02-29T07:36:21.836Z,8.24
2024-02-29T07:37:19.175Z,8.41
2024-02-29T07:38:16.416Z,8.66
2024-02-29T07:39:13.904Z,8.73
2024-02-29T07:40:11.165Z,8.69
2024-02-29T07:41:08.318Z,8.78
2024-02-29T07:42:05.591Z,9.12
2024-02-29T07:43:02.650Z,8.74
2024-02-29T07:43:59.774Z,8.83
2024-02-29T07:44:57.794Z,8.90
2024-02-29T07:45:55.007Z,9.55
2024-02-29T07:46:52.257Z,10.07
2024-02-29T07:47:49.320Z,10.29
2024-02-29T07:48:46.517Z,10.41
2024-02-29T07:49:43.907Z,10.40
2024-02-29T07:50:40.964Z,9.98
2024-02-29T07:51:38.125Z,10.04
2024-02-29T07:52:39.740Z,10.49
2024-02-29T07:53:37.018Z,10.29
2024-02-29T07:54:34.138Z,10.29
2024-02-29T07:55:31.496Z,10.41
2024-02-29T07:56:30.322Z,10.54
2024-02-29T07:57:31.106Z,10.50
2024-02-29T07:58:29.288Z,10.10
2024-02-29T07:59:27.016Z,9.99
2024-02-29T08:00:24.439Z,10.03
2024-02-29T08:01:21.644Z,10.60
2024-02-29T08:02:21.195Z,10.80
2024-02-29T08:03:19.573Z,10.73
2024-02-29T08:04:16.790Z,10.82
2024-02-29T08:05:14.267Z,10.88
2024-02-29T08:06:11.300Z,10.67
2024-02-29T08:07:08.450Z,10.48
2024-02-29T08:08:06.015Z,10.37
2024-02-29T08:09:09.507Z,10.23
2024-02-29T08:10:08.343Z,10.55
2024-02-29T08:11:08.639Z,10.82
2024-02-29T08:12:07.091Z,10.92
2024-02-29T08:13:04.499Z,10.93
2024-02-29T08:14:02.273Z,10.66
2024-02-29T08:14:59.483Z,10.35
2024-02-29T08:15:56.705Z,10.72
2024-02-29T08:16:53.692Z,10.77
2024-02-29T08:17:50.963Z,10.28
2024-02-29T08:18:48.826Z,10.53
2024-02-29T08:19:47.068Z,10.71
2024-02-29T08:20:47.452Z,10.98
2024-02-29T08:21:44.720Z,10.93
2024-02-29T08:22:41.978Z,10.68
2024-02-29T08:23:39.040Z,10.87
2024-02-29T08:24:36.134Z,11.02
2024-02-29T08:25:33.516Z,11.06
2024-02-29T08:26:30.890Z,11.06
2024-02-29T08:27:28.624Z,10.97
2024-02-29T08:28:26.301Z,10.91
2024-02-29T08:29:23.389Z,11.08
2024-02-29T08:30:21.054Z,10.92
2024-02-29T08:31:18.989Z,10.91
2024-02-29T08:32:16.344Z,11.13
2024-02-29T08:33:13.627Z,11.22
2024-02-29T08:34:11.051Z,11.00
2024-02-29T08:35:09.029Z,10.90
2024-02-29T08:36:06.300Z,11.14
2024-02-29T08:37:03.715Z,11.33
2024-02-29T08:38:01.128Z,11.14
2024-02-29T08:39:00.127Z,11.42
2024-02-29T08:39:57.917Z,11.44
2024-02-29T08:43:05.975Z,11.49
2024-02-29T08:44:04.663Z,11.48
2024-02-29T08:45:01.937Z,11.57
2024-02-29T08:45:59.072Z,11.79
2024-02-29T08:46:56.132Z,11.51
2024-02-29T08:47:53.115Z,11.89
2024-02-29T08:48:50.300Z,11.97
2024-02-29T08:49:47.385Z,12.00
2024-02-29T08:50:44.523Z,12.07
2024-02-29T08:51:42.035Z,12.01
2024-02-29T08:52:40.637Z,11.92
2024-02-29T08:53:37.747Z,11.61
2024-02-29T08:54:36.085Z,11.43
2024-02-29T08:55:33.286Z,11.71
2024-02-29T08:56:30.410Z,11.76
2024-02-29T08:57:27.571Z,11.64
2024-02-29T08:58:25.047Z,11.49
2024-02-29T08:59:22.592Z,11.30
2024-02-29T09:00:20.337Z,11.26
2024-02-29T09:01:18.072Z,11.30
2024-02-29T09:02:15.330Z,11.03
2024-02-29T09:03:14.925Z,11.21
2024-02-29T09:04:12.076Z,11.61
2024-02-29T09:05:09.609Z,11.83
2024-02-29T09:06:06.869Z,11.70
2024-02-29T09:07:04.910Z,11.75
2024-02-29T09:08:02.575Z,11.70
2024-02-29T09:08:59.945Z,11.34
2024-02-29T09:09:57.123Z,11.60
2024-02-29T09:10:54.481Z,11.93
2024-02-29T09:11:52.415Z,11.80
2024-02-29T09:12:49.478Z,11.62
2024-02-29T09:13:47.282Z,11.23
2024-02-29T09:14:47.718Z,11.78
2024-02-29T09:15:45.634Z,11.97
2024-02-29T09:16:46.051Z,11.97
2024-02-29T09:17:43.811Z,12.22
2024-02-29T09:18:41.225Z,12.28
2024-02-29T09:19:38.495Z,12.11
2024-02-29T09:20:35.568Z,12.11
2024-02-29T09:21:32.843Z,12.49
2024-02-29T09:22:29.985Z,12.46
2024-02-29T09:23:27.755Z,12.52
2024-02-29T09:24:25.021Z,12.61
2024-02-29T09:25:22.237Z,12.52
2024-02-29T09:26:19.899Z,12.45
2024-02-29T09:27:17.185Z,12.42
2024-02-29T09:28:14.464Z,12.17
2024-02-29T09:29:11.825Z,12.10
2024-02-29T09:30:09.278Z,12.31
2024-02-29T09:31:06.599Z,12.72
2024-02-29T09:32:06.614Z,12.62
2024-02-29T09:33:04.014Z,12.73
2024-02-29T09:34:01.323Z,12.84
2024-02-29T09:34:58.492Z,12.90
2024-02-29T09:35:59.236Z,12.90
2024-02-29T09:36:56.645Z,12.98
2024-02-29T09:37:53.796Z,12.91
2024-02-29T09:38:50.987Z,12.91
2024-02-29T09:39:48.635Z,12.87
2024-02-29T09:40:49.669Z,12.86
2024-02-29T09:42:11.168Z,12.89
2024-02-29T09:43:11.957Z,12.96
2024-02-29T09:44:10.080Z,12.93
2024-02-29T09:45:08.630Z,12.41
2024-02-29T09:46:07.234Z,12.55
2024-02-29T09:47:06.327Z,12.54
2024-02-29T09:48:04.696Z,12.64
2024-02-29T09:49:01.955Z,12.93
2024-02-29T09:50:05.031Z,12.98
2024-02-29T09:51:04.034Z,13.06
2024-02-29T09:52:01.613Z,12.82
2024-02-29T09:53:00.196Z,13.04
2024-02-29T09:53:58.766Z,13.04
2024-02-29T09:54:56.984Z,12.92
2024-02-29T09:55:54.177Z,12.96
2024-02-29T09:56:52.009Z,12.86
2024-02-29T09:57:49.255Z,13.03
2024-02-29T09:58:46.557Z,12.89
2024-02-29T09:59:44.162Z,12.87
2024-02-29T10:00:41.298Z,12.84
2024-02-29T10:01:38.572Z,12.89
2024-02-29T10:02:36.586Z,12.97
2024-02-29T10:03:33.874Z,13.03
2024-02-29T10:04:31.053Z,13.00
2024-02-29T10:05:28.302Z,12.92
2024-02-29T10:06:25.935Z,12.96
2024-02-29T10:07:23.150Z,12.83
2024-02-29T10:08:20.416Z,12.92
2024-02-29T10:09:17.612Z,13.00
2024-02-29T10:10:16.338Z,13.16
2024-02-29T10:11:13.802Z,13.35
2024-02-29T10:12:16.875Z,13.36
2024-02-29T10:13:14.089Z,13.36
2024-02-29T10:14:28.336Z,13.39
2024-02-29T10:15:28.930Z,12.84
2024-02-29T10:16:28.574Z,12.96
2024-02-29T10:17:26.190Z,13.21
2024-02-29T10:18:23.345Z,13.38
2024-02-29T10:19:21.628Z,13.21
2024-02-29T10:20:21.713Z,13.50
2024-02-29T10:21:18.921Z,13.32
2024-02-29T10:22:22.205Z,13.33
2024-02-29T10:23:19.225Z,13.56
2024-02-29T10:24:16.500Z,13.67
2024-02-29T10:25:14.689Z,13.64
2024-02-29T10:26:11.982Z,13.59
2024-02-29T10:27:09.858Z,13.84
2024-02-29T10:28:07.320Z,13.77
2024-02-29T10:29:10.138Z,13.67
2024-02-29T10:30:11.648Z,13.58
2024-02-29T10:31:08.937Z,13.65
2024-02-29T10:32:06.186Z,13.72
2024-02-29T10:33:04.643Z,13.80
2024-02-29T10:34:01.794Z,13.73
2024-02-29T10:34:58.894Z,13.84
2024-02-29T10:35:56.396Z,13.67
2024-02-29T10:36:53.455Z,13.75
2024-02-29T10:37:55.211Z,13.77
2024-02-29T10:38:52.725Z,13.79
2024-02-29T10:39:49.892Z,14.02
2024-02-29T10:40:51.075Z,13.95
2024-02-29T10:41:51.782Z,13.87
2024-02-29T10:42:58.083Z,13.76
2024-02-29T10:43:56.357Z,13.83
2024-02-29T10:44:54.367Z,13.80
2024-02-29T10:45:52.349Z,13.87
2024-02-29T10:46:51.454Z,14.00
2024-02-29T10:48:00.481Z,13.94
2024-02-29T10:49:36.767Z,14.22
2024-02-29T10:50:50.093Z,14.13
2024-02-29T10:52:06.126Z,14.39
2024-02-29T10:53:20.829Z,14.17
2024-02-29T10:54:21.938Z,13.83
2024-02-29T10:55:26.143Z,13.81
2024-02-29T10:56:24.915Z,13.73
2024-02-29T10:57:28.068Z,13.84
2024-02-29T10:58:29.711Z,13.90
2024-02-29T10:59:26.953Z,14.21
2024-02-29T11:00:24.314Z,14.19
2024-02-29T11:01:21.631Z,14.23
2024-02-29T11:02:19.722Z,14.24
2024-02-29T11:03:17.148Z,14.35
2024-02-29T11:04:17.595Z,14.33
2024-02-29T11:05:14.944Z,14.28
2024-02-29T11:06:14.329Z,14.27
2024-02-29T11:07:11.493Z,14.32
2024-02-29T11:08:09.681Z,14.18
2024-02-29T11:09:10.013Z,14.20
2024-02-29T11:10:08.510Z,14.30
2024-02-29T11:11:13.280Z,14.32
2024-02-29T11:12:17.473Z,14.30
2024-02-29T11:13:20.490Z,14.49
2024-02-29T11:14:20.719Z,14.44
2024-02-29T11:15:27.050Z,14.72
2024-02-29T11:16:24.493Z,15.07
2024-02-29T11:17:21.794Z,15.20
2024-02-29T11:18:26.040Z,15.23
2024-02-29T11:19:23.197Z,15.02
2024-02-29T11:20:21.836Z,14.85
2024-02-29T11:21:30.005Z,14.77
2024-02-29T11:22:35.061Z,14.83
2024-02-29T11:23:39.617Z,14.67
2024-02-29T11:24:37.519Z,14.68
2024-02-29T11:25:34.733Z,14.71
2024-02-29T11:26:36.843Z,14.67
2024-02-29T11:27:35.470Z,14.61
2024-02-29T11:28:43.043Z,14.47
2024-02-29T11:29:43.532Z,14.59
2024-02-29T11:30:42.465Z,14.95
2024-02-29T11:31:45.442Z,15.15
2024-02-29T11:32:42.621Z,15.19
2024-02-29T11:33:40.004Z,15.03
2024-02-29T11:34:37.146Z,15.04
2024-02-29T11:35:34.663Z,15.06
2024-02-29T11:36:33.707Z,15.10
2024-02-29T11:37:34.330Z,15.10
2024-02-29T11:38:40.275Z,15.10
2024-02-29T11:39:38.005Z,15.23
2024-02-29T11:40:37.000Z,15.33
2024-02-29T11:41:34.203Z,15.61
2024-02-29T11:42:31.511Z,15.74
2024-02-29T11:43:28.768Z,15.58
2024-02-29T11:44:25.937Z,15.50
2024-02-29T11:45:23.813Z,15.75
2024-02-29T11:46:21.316Z,15.64
2024-02-29T11:47:18.549Z,15.70
2024-02-29T11:48:16.608Z,15.90
2024-02-29T11:49:15.538Z,15.95
2024-02-29T11:50:14.452Z,16.09
2024-02-29T11:51:11.773Z,16.12
2024-02-29T11:52:09.187Z,16.18
2024-02-29T11:53:06.246Z,16.24
2024-02-29T11:54:03.337Z,16.32
2024-02-29T11:55:00.591Z,16.24
2024-02-29T11:56:03.098Z,16.18
2024-02-29T11:57:08.227Z,15.95
2024-02-29T11:58:05.505Z,15.86
2024-02-29T11:59:08.325Z,15.81
2024-02-29T12:00:08.176Z,15.84
2024-02-29T12:01:05.655Z,15.90
2024-02-29T12:02:07.264Z,15.82
2024-02-29T12:03:05.762Z,16.07
2024-02-29T12:04:03.184Z,16.36
2024-02-29T12:05:00.326Z,16.48
2024-02-29T12:05:59.127Z,16.25
2024-02-29T12:06:57.417Z,16.13
2024-02-29T12:07:54.411Z,16.10
2024-02-29T12:08:51.518Z,15.96
2024-02-29T12:09:48.951Z,16.12
2024-02-29T12:10:49.126Z,16.26
2024-02-29T12:11:46.805Z,16.16
2024-02-29T12:12:43.990Z,16.16
2024-02-29T12:13:41.338Z,16.42
2024-02-29T12:14:40.098Z,16.41
2024-02-29T12:15:37.528Z,16.61
2024-02-29T12:16:37.343Z,16.51
2024-02-29T12:17:34.614Z,16.54
2024-02-29T12:18:34.261Z,16.32
2024-02-29T12:19:31.570Z,16.51
2024-02-29T12:20:29.108Z,16.49
2024-02-29T12:21:28.072Z,16.68
2024-02-29T12:22:25.285Z,16.74
2024-02-29T12:23:22.378Z,16.63
2024-02-29T12:24:20.295Z,16.61
2024-02-29T12:25:18.739Z,16.67
2024-02-29T12:26:17.563Z,16.72
2024-02-29T12:27:14.668Z,16.70
2024-02-29T12:28:13.234Z,16.73
2024-02-29T12:29:10.437Z,16.77
2024-02-29T12:30:09.118Z,17.07
2024-02-29T12:31:09.792Z,16.92
2024-02-29T12:32:06.960Z,16.97
2024-02-29T12:33:04.156Z,17.43
2024-02-29T12:34:02.387Z,17.57
2024-02-29T12:34:59.518Z,17.74
2024-02-29T12:35:56.670Z,17.49
2024-02-29T12:36:57.487Z,17.46
2024-02-29T12:37:54.990Z,17.38
2024-02-29T12:38:53.792Z,17.40
2024-02-29T12:40:03.069Z,17.48
2024-02-29T12:41:00.741Z,17.23
2024-02-29T12:41:58.084Z,17.27
2024-02-29T12:42:55.643Z,17.02
2024-02-29T12:43:55.593Z,17.03
2024-02-29T12:44:53.324Z,17.17
2024-02-29T12:45:50.553Z,17.23